AirNav   Pilot Hours Calculator
 
 1423 users online  

IS08 Curless Airport
Summum, Illinois, USA

GOING TO SUMMUM?


FAA INFORMATION EFFECTIVE 01 DECEMBER 2022

Location

FAA Identifier: IS08
Lat/Long: 40-15-46.1590N 090-14-12.4370W
40-15.769317N 090-14.207283W
40.2628219,-90.2367881
(estimated)
Elevation: 620 ft. / 189 m (estimated)
Variation: 02E (1985)
From city: 2 miles E of SUMMUM, IL
Time zone: UTC -6 (UTC -5 during Daylight Saving Time)
Zip code: 61501

Airport Operations

Airport use: Private use. Permission required prior to landing
Activation date: 01/1980
Control tower: no
ARTCC: KANSAS CITY CENTER
FSS: KANKAKEE FLIGHT SERVICE STATION
Attendance: IREG
ATTENDED YEAR ROUND WEATHER PERMITTING.
Wind indicator: yes
Segmented circle: no

Nearby radio navigation aids

VOR radial/distance  VOR name  Freq  Var
PIAr215/32.2PEORIA VORTAC115.2004E
SPIr316/36.1SPINNER VORTAC112.7001W

 
NDB name  Hdg/Dist  Freq  Var  ID
MACOMB135/21.325101EJZY .--- --.. -.--

Airport Services

Runway Information

Runway 5/23

Dimensions: 3400 x 110 ft. / 1036 x 34 m
Surface: turf
RUNWAY 5  RUNWAY 23
Traffic pattern: leftleft

Airport Ownership and Management from official FAA records

Ownership: Privately-owned
Owner: HARLEY & KAY CURLESS
11220 E. BRICKER RD
ASTORIA, IL 61501
Manager: HARLEY J. CURLESS
11220 E. BRICKER RD
ASTORIA, IL 61501
Phone 309-759-4826
JOE CURLESS 217-519-0885

Airport Operational Statistics

Aircraft based on the field: 4
Single engine airplanes: 4
    

Additional Remarks

OWNER DESIRES ARPT TO BE CHARTED.
FOR CD CTC ST LOUIS APCH AT 314-890-1017.

Instrument Procedures

There are no published instrument procedures at IS08.

Some nearby airports with instrument procedures:

KCTK - Ingersoll Airport (20 nm N)
KMQB - Macomb Municipal Airport (24 nm NW)
C15 - Pekin Municipal Airport (29 nm NE)
KIJX - Jacksonville Municipal Airport (29 nm S)
I63 - Mount Sterling Municipal Airport (31 nm SW)
 
Loc | Ops | Rwys | IFR | FBO | Links
Com | Nav | Svcs | Stats | Notes
Area around IS08 (Curless Airport)
 
Road maps at: MapQuest Bing Google
 
Aerial photo
No photo
 
Sectional chart

 
Airport distance calculator
Flying to Curless Airport? Find the distance to fly.

From to IS08

Sunrise and sunset
Times for 07-Dec-2022
 Local
(UTC-6)
 Zulu
(UTC)
Morning civil twilight06:4112:41
Sunrise07:1113:11
Sunset16:3422:34
Evening civil twilight17:0423:04

Current date and time
Zulu (UTC)  07-Dec-2022 14:30:53
Local (UTC-6)  07-Dec-2022 08:30:53
 
METAR
KMQB 
24nm NW 
071415Z AUTO 08003KT M1/4SM FG OVC002 00/00 A3025 RMK AO2 T00010001
KIJX 
30nm S 
071415Z AUTO 09003KT 2 1/2SM BKN032 04/04 A3023 RMK AO2 T00360036
KI63 
31nm SW 
071415Z AUTO 00000KT 2SM BR CLR 03/03 A3022 RMK AO2 T00260026
KPIA 
35nm NE 
071412Z 15003KT 1 1/2SM BR OVC003 03/03 A3023 RMK AO2 T00330033 $
KSPI 
35nm SE 
071422Z 06005KT 1SM R04/P6000FT BR OVC002 04/03 A3024 RMK AO2 T00440033
KGBG 
41nm N 
071415Z AUTO 14003KT M1/4SM FG OVC002 00/00 A3024 RMK AO2 T00020002
KAAA 
42nm E 
071415Z AUTO 00000KT 2SM BR OVC004 04/04 A3024 RMK AO2 T00350035
KPPQ 
45nm SW 
071415Z AUTO 00000KT 4SM SCT034 06/06 A3023 RMK AO2 T00550055
KUIN 
48nm SW 
071354Z AUTO 00000KT 2 1/2SM BR CLR 04/03 A3020 RMK AO2 SLP232 T00390028
TAF
KPIA 
35nm NE 
071121Z 0712/0812 VRB03KT 1SM BR OVC004 TEMPO 0712/0714 1/2SM FG VV002 FM071600 VRB03KT 4SM BR BKN012 FM071800 31005KT P6SM BKN018 FM080000 04003KT P6SM SCT180 BKN250 FM080800 08008KT P6SM BKN180
KSPI 
35nm SE 
071121Z 0712/0812 VRB03KT 2SM BR OVC004 TEMPO 0712/0714 3/4SM BR VV002 FM071500 VRB03KT 6SM BR BKN007 FM071800 33005KT P6SM BKN018 FM080000 04003KT P6SM SCT180 BKN250 FM080800 06008KT P6SM BKN018
NOTAMs
Click for the latest NOTAMs
NOTAMs are issued by the DoD/FAA and will open in a separate window not controlled by AirNav.

 

 
 

Would you like to see your business listed on this page?

 If your business provides an interesting product or service to pilots, flight crews, aircraft, or users of the Curless Airport, you should consider listing it here.  To start the listing process, click on the button below
 
Add a business
 

Other Pages about Curless Airport

Update a link
 
Copyright © AirNav, LLC. All rights reserved. Privacy Policy  Contact